sensor_id;sensor_type;location;lat;lon;timestamp;temperature;humidity
48416;DHT22;34227;51.840;4.146;2023-07-30T00:01:36;18.70;92.10
48416;DHT22;34227;51.840;4.146;2023-07-30T00:04:01;18.70;92.30
48416;DHT22;34227;51.840;4.146;2023-07-30T00:06:27;18.60;92.20
48416;DHT22;34227;51.840;4.146;2023-07-30T00:08:52;18.70;92.30
48416;DHT22;34227;51.840;4.146;2023-07-30T00:11:18;18.60;92.20
48416;DHT22;34227;51.840;4.146;2023-07-30T00:13:44;18.70;92.30
48416;DHT22;34227;51.840;4.146;2023-07-30T00:16:09;18.60;92.30
48416;DHT22;34227;51.840;4.146;2023-07-30T00:18:35;18.60;92.30
48416;DHT22;34227;51.840;4.146;2023-07-30T00:21:00;18.60;92.30
48416;DHT22;34227;51.840;4.146;2023-07-30T00:23:26;18.60;92.30
48416;DHT22;34227;51.840;4.146;2023-07-30T00:25:51;18.60;92.30
48416;DHT22;34227;51.840;4.146;2023-07-30T00:28:17;18.70;92.50
48416;DHT22;34227;51.840;4.146;2023-07-30T00:30:42;18.60;92.60
48416;DHT22;34227;51.840;4.146;2023-07-30T00:33:08;18.60;92.40
48416;DHT22;34227;51.840;4.146;2023-07-30T00:35:34;18.60;92.40
48416;DHT22;34227;51.840;4.146;2023-07-30T00:37:59;18.70;92.50
48416;DHT22;34227;51.840;4.146;2023-07-30T00:40:26;18.60;92.60
48416;DHT22;34227;51.840;4.146;2023-07-30T00:42:52;18.60;92.60
48416;DHT22;34227;51.840;4.146;2023-07-30T00:45:17;18.70;92.70
48416;DHT22;34227;51.840;4.146;2023-07-30T00:47:43;18.70;92.60
48416;DHT22;34227;51.840;4.146;2023-07-30T00:50:09;18.70;92.70
48416;DHT22;34227;51.840;4.146;2023-07-30T00:52:35;18.60;92.70
48416;DHT22;34227;51.840;4.146;2023-07-30T00:55:02;18.70;92.70
48416;DHT22;34227;51.840;4.146;2023-07-30T00:57:28;18.60;92.80
48416;DHT22;34227;51.840;4.146;2023-07-30T00:59:54;18.70;92.70
48416;DHT22;34227;51.840;4.146;2023-07-30T01:02:20;18.70;92.80
48416;DHT22;34227;51.840;4.146;2023-07-30T01:04:46;18.70;92.90
48416;DHT22;34227;51.840;4.146;2023-07-30T01:07:11;18.70;92.90
48416;DHT22;34227;51.840;4.146;2023-07-30T01:09:37;18.70;92.80
48416;DHT22;34227;51.840;4.146;2023-07-30T01:12:03;18.70;92.90
48416;DHT22;34227;51.840;4.146;2023-07-30T01:14:30;18.70;92.90
48416;DHT22;34227;51.840;4.146;2023-07-30T01:16:56;18.70;92.90
48416;DHT22;34227;51.840;4.146;2023-07-30T01:19:21;18.70;92.80
48416;DHT22;34227;51.840;4.146;2023-07-30T01:21:47;18.70;92.90
48416;DHT22;34227;51.840;4.146;2023-07-30T01:24:12;18.70;92.80
48416;DHT22;34227;51.840;4.146;2023-07-30T01:26:59;18.70;93.20
48416;DHT22;34227;51.840;4.146;2023-07-30T01:29:42;18.70;92.80
48416;DHT22;34227;51.840;4.146;2023-07-30T01:32:11;18.70;92.90
48416;DHT22;34227;51.840;4.146;2023-07-30T01:34:37;18.70;92.80
48416;DHT22;34227;51.840;4.146;2023-07-30T01:37:04;18.70;92.80
48416;DHT22;34227;51.840;4.146;2023-07-30T01:39:30;18.70;92.90
48416;DHT22;34227;51.840;4.146;2023-07-30T01:41:56;18.70;92.80
48416;DHT22;34227;51.840;4.146;2023-07-30T01:44:22;18.70;92.80
48416;DHT22;34227;51.840;4.146;2023-07-30T01:46:47;18.70;92.90
48416;DHT22;34227;51.840;4.146;2023-07-30T01:49:13;18.70;92.90
48416;DHT22;34227;51.840;4.146;2023-07-30T01:51:38;18.70;92.90
48416;DHT22;34227;51.840;4.146;2023-07-30T01:54:04;18.70;93.00
48416;DHT22;34227;51.840;4.146;2023-07-30T01:56:29;18.70;93.00
48416;DHT22;34227;51.840;4.146;2023-07-30T01:58:55;18.60;93.00
48416;DHT22;34227;51.840;4.146;2023-07-30T02:01:21;18.60;93.10
48416;DHT22;34227;51.840;4.146;2023-07-30T02:03:47;18.60;93.10
48416;DHT22;34227;51.840;4.146;2023-07-30T02:06:12;18.60;93.00
48416;DHT22;34227;51.840;4.146;2023-07-30T02:08:38;18.60;93.00
48416;DHT22;34227;51.840;4.146;2023-07-30T02:11:04;18.60;93.10
48416;DHT22;34227;51.840;4.146;2023-07-30T02:13:29;18.60;93.00
48416;DHT22;34227;51.840;4.146;2023-07-30T02:15:55;18.60;93.40
48416;DHT22;34227;51.840;4.146;2023-07-30T02:18:20;18.60;93.10
48416;DHT22;34227;51.840;4.146;2023-07-30T02:20:46;18.60;93.20
48416;DHT22;34227;51.840;4.146;2023-07-30T02:23:13;18.60;93.20
48416;DHT22;34227;51.840;4.146;2023-07-30T02:25:38;18.60;93.10
48416;DHT22;34227;51.840;4.146;2023-07-30T02:28:04;18.60;93.10
48416;DHT22;34227;51.840;4.146;2023-07-30T02:30:29;18.60;93.20
48416;DHT22;34227;51.840;4.146;2023-07-30T02:32:55;18.50;93.30
48416;DHT22;34227;51.840;4.146;2023-07-30T02:35:21;18.60;93.20
48416;DHT22;34227;51.840;4.146;2023-07-30T02:37:46;18.50;93.20
48416;DHT22;34227;51.840;4.146;2023-07-30T02:40:12;18.50;93.20
48416;DHT22;34227;51.840;4.146;2023-07-30T02:42:37;18.50;93.10
48416;DHT22;34227;51.840;4.146;2023-07-30T02:45:03;18.50;93.30
48416;DHT22;34227;51.840;4.146;2023-07-30T02:47:29;18.50;93.20
48416;DHT22;34227;51.840;4.146;2023-07-30T02:49:54;18.50;93.20
48416;DHT22;34227;51.840;4.146;2023-07-30T02:52:20;18.50;93.20
48416;DHT22;34227;51.840;4.146;2023-07-30T02:54:45;18.50;93.00
48416;DHT22;34227;51.840;4.146;2023-07-30T02:57:11;18.50;93.10
48416;DHT22;34227;51.840;4.146;2023-07-30T02:59:38;18.50;93.10
48416;DHT22;34227;51.840;4.146;2023-07-30T03:02:04;18.50;93.00
48416;DHT22;34227;51.840;4.146;2023-07-30T03:04:32;18.50;93.00
48416;DHT22;34227;51.840;4.146;2023-07-30T03:06:58;18.50;93.00
48416;DHT22;34227;51.840;4.146;2023-07-30T03:09:26;18.50;93.00
48416;DHT22;34227;51.840;4.146;2023-07-30T03:11:53;18.40;92.90
48416;DHT22;34227;51.840;4.146;2023-07-30T03:14:22;18.40;93.00
48416;DHT22;34227;51.840;4.146;2023-07-30T03:16:48;18.40;93.00
48416;DHT22;34227;51.840;4.146;2023-07-30T03:19:14;18.40;93.10
48416;DHT22;34227;51.840;4.146;2023-07-30T03:21:39;18.40;93.00
48416;DHT22;34227;51.840;4.146;2023-07-30T03:24:05;18.40;93.00
48416;DHT22;34227;51.840;4.146;2023-07-30T03:26:30;18.40;92.90
48416;DHT22;34227;51.840;4.146;2023-07-30T03:28:56;18.30;93.00
48416;DHT22;34227;51.840;4.146;2023-07-30T03:31:21;18.30;93.00
48416;DHT22;34227;51.840;4.146;2023-07-30T03:33:47;18.30;93.00
48416;DHT22;34227;51.840;4.146;2023-07-30T03:36:13;18.20;93.00
48416;DHT22;34227;51.840;4.146;2023-07-30T03:38:39;18.30;93.00
48416;DHT22;34227;51.840;4.146;2023-07-30T03:41:07;18.20;92.90
48416;DHT22;34227;51.840;4.146;2023-07-30T03:43:33;18.20;92.90
48416;DHT22;34227;51.840;4.146;2023-07-30T03:45:59;18.20;93.00
48416;DHT22;34227;51.840;4.146;2023-07-30T03:48:24;18.10;92.90
48416;DHT22;34227;51.840;4.146;2023-07-30T03:50:50;18.10;92.90
48416;DHT22;34227;51.840;4.146;2023-07-30T03:53:15;18.10;92.90
48416;DHT22;34227;51.840;4.146;2023-07-30T03:55:41;18.10;92.90
48416;DHT22;34227;51.840;4.146;2023-07-30T03:58:07;18.10;92.90
48416;DHT22;34227;51.840;4.146;2023-07-30T04:00:32;18.10;92.90
48416;DHT22;34227;51.840;4.146;2023-07-30T04:02:58;18.10;93.00
48416;DHT22;34227;51.840;4.146;2023-07-30T04:05:24;18.10;92.90
48416;DHT22;34227;51.840;4.146;2023-07-30T04:07:49;18.00;92.90
48416;DHT22;34227;51.840;4.146;2023-07-30T04:10:15;18.00;92.90
48416;DHT22;34227;51.840;4.146;2023-07-30T04:12:40;18.00;93.00
48416;DHT22;34227;51.840;4.146;2023-07-30T04:15:06;18.00;92.90
48416;DHT22;34227;51.840;4.146;2023-07-30T04:17:32;18.00;92.90
48416;DHT22;34227;51.840;4.146;2023-07-30T04:19:57;18.00;93.00
48416;DHT22;34227;51.840;4.146;2023-07-30T04:22:25;18.00;93.00
48416;DHT22;34227;51.840;4.146;2023-07-30T04:24:51;18.00;93.00
48416;DHT22;34227;51.840;4.146;2023-07-30T04:27:17;18.00;93.00
48416;DHT22;34227;51.840;4.146;2023-07-30T04:29:42;18.00;93.10
48416;DHT22;34227;51.840;4.146;2023-07-30T04:32:08;18.00;93.00
48416;DHT22;34227;51.840;4.146;2023-07-30T04:34:33;18.00;93.10
48416;DHT22;34227;51.840;4.146;2023-07-30T04:36:59;18.00;93.10
48416;DHT22;34227;51.840;4.146;2023-07-30T04:39:24;18.00;93.10
48416;DHT22;34227;51.840;4.146;2023-07-30T04:41:50;18.00;93.00
48416;DHT22;34227;51.840;4.146;2023-07-30T04:44:16;18.00;93.10
48416;DHT22;34227;51.840;4.146;2023-07-30T04:46:41;18.00;93.10
48416;DHT22;34227;51.840;4.146;2023-07-30T04:49:07;18.00;93.10
48416;DHT22;34227;51.840;4.146;2023-07-30T04:51:32;18.00;93.10
48416;DHT22;34227;51.840;4.146;2023-07-30T04:53:58;18.00;93.10
48416;DHT22;34227;51.840;4.146;2023-07-30T04:56:23;18.00;93.20
48416;DHT22;34227;51.840;4.146;2023-07-30T04:58:51;18.00;93.10
48416;DHT22;34227;51.840;4.146;2023-07-30T05:01:17;18.00;93.20
48416;DHT22;34227;51.840;4.146;2023-07-30T05:03:42;18.00;93.30
48416;DHT22;34227;51.840;4.146;2023-07-30T05:06:08;18.00;93.30
48416;DHT22;34227;51.840;4.146;2023-07-30T05:08:33;18.00;93.50
48416;DHT22;34227;51.840;4.146;2023-07-30T05:10:59;18.00;93.40
48416;DHT22;34227;51.840;4.146;2023-07-30T05:13:24;18.00;93.40
48416;DHT22;34227;51.840;4.146;2023-07-30T05:15:50;18.10;93.50
48416;DHT22;34227;51.840;4.146;2023-07-30T05:18:16;18.00;93.50
48416;DHT22;34227;51.840;4.146;2023-07-30T05:20:41;18.10;93.60
48416;DHT22;34227;51.840;4.146;2023-07-30T05:23:07;18.10;93.60
48416;DHT22;34227;51.840;4.146;2023-07-30T05:25:32;18.10;93.30
48416;DHT22;34227;51.840;4.146;2023-07-30T05:27:58;18.10;93.30
48416;DHT22;34227;51.840;4.146;2023-07-30T05:30:24;18.10;93.40
48416;DHT22;34227;51.840;4.146;2023-07-30T05:32:49;18.10;93.60
48416;DHT22;34227;51.840;4.146;2023-07-30T05:35:15;18.10;93.60
48416;DHT22;34227;51.840;4.146;2023-07-30T05:37:40;18.20;93.50
48416;DHT22;34227;51.840;4.146;2023-07-30T05:40:06;18.20;93.60
48416;DHT22;34227;51.840;4.146;2023-07-30T05:42:34;18.20;93.70
48416;DHT22;34227;51.840;4.146;2023-07-30T05:45:00;18.20;93.60
48416;DHT22;34227;51.840;4.146;2023-07-30T05:47:26;18.30;93.70
48416;DHT22;34227;51.840;4.146;2023-07-30T05:49:51;18.30;93.80
48416;DHT22;34227;51.840;4.146;2023-07-30T05:52:17;18.30;93.60
48416;DHT22;34227;51.840;4.146;2023-07-30T05:54:42;18.30;93.70
48416;DHT22;34227;51.840;4.146;2023-07-30T05:57:08;18.40;93.70
48416;DHT22;34227;51.840;4.146;2023-07-30T05:59:33;18.40;93.50
48416;DHT22;34227;51.840;4.146;2023-07-30T06:02:01;18.40;93.60
48416;DHT22;34227;51.840;4.146;2023-07-30T06:04:28;18.50;93.60
48416;DHT22;34227;51.840;4.146;2023-07-30T06:06:53;18.50;93.60
48416;DHT22;34227;51.840;4.146;2023-07-30T06:09:20;18.50;93.40
48416;DHT22;34227;51.840;4.146;2023-07-30T06:11:45;18.50;93.40
48416;DHT22;34227;51.840;4.146;2023-07-30T06:14:11;18.50;93.40
48416;DHT22;34227;51.840;4.146;2023-07-30T06:16:36;18.60;93.40
48416;DHT22;34227;51.840;4.146;2023-07-30T06:19:02;18.60;93.40
48416;DHT22;34227;51.840;4.146;2023-07-30T06:21:28;18.70;93.40
48416;DHT22;34227;51.840;4.146;2023-07-30T06:23:56;18.70;93.40
48416;DHT22;34227;51.840;4.146;2023-07-30T06:26:22;18.70;93.70
48416;DHT22;34227;51.840;4.146;2023-07-30T06:28:47;18.70;93.50
48416;DHT22;34227;51.840;4.146;2023-07-30T06:31:13;18.70;93.50
48416;DHT22;34227;51.840;4.146;2023-07-30T06:33:38;18.80;93.60
48416;DHT22;34227;51.840;4.146;2023-07-30T06:36:05;18.80;93.90
48416;DHT22;34227;51.840;4.146;2023-07-30T06:38:31;18.90;93.80
48416;DHT22;34227;51.840;4.146;2023-07-30T06:40:56;19.00;93.80
48416;DHT22;34227;51.840;4.146;2023-07-30T06:43:25;19.10;93.60
48416;DHT22;34227;51.840;4.146;2023-07-30T06:45:50;19.20;93.60
48416;DHT22;34227;51.840;4.146;2023-07-30T06:48:16;19.40;93.50
48416;DHT22;34227;51.840;4.146;2023-07-30T06:50:41;19.50;93.50
48416;DHT22;34227;51.840;4.146;2023-07-30T06:53:07;19.60;93.20
48416;DHT22;34227;51.840;4.146;2023-07-30T06:55:32;19.70;93.10
48416;DHT22;34227;51.840;4.146;2023-07-30T06:57:58;19.80;92.90
48416;DHT22;34227;51.840;4.146;2023-07-30T07:00:24;19.80;92.80
48416;DHT22;34227;51.840;4.146;2023-07-30T07:02:49;19.90;92.70
48416;DHT22;34227;51.840;4.146;2023-07-30T07:05:15;19.90;92.70
48416;DHT22;34227;51.840;4.146;2023-07-30T07:07:41;19.90;92.70
48416;DHT22;34227;51.840;4.146;2023-07-30T07:10:06;20.00;92.80
48416;DHT22;34227;51.840;4.146;2023-07-30T07:12:32;20.10;92.80
48416;DHT22;34227;51.840;4.146;2023-07-30T07:14:58;20.20;92.70
48416;DHT22;34227;51.840;4.146;2023-07-30T07:17:27;20.40;92.60
48416;DHT22;34227;51.840;4.146;2023-07-30T07:19:52;20.50;92.30
48416;DHT22;34227;51.840;4.146;2023-07-30T07:22:18;20.60;92.40
48416;DHT22;34227;51.840;4.146;2023-07-30T07:24:44;20.70;92.00
48416;DHT22;34227;51.840;4.146;2023-07-30T07:27:09;20.80;91.90
48416;DHT22;34227;51.840;4.146;2023-07-30T07:29:35;20.90;91.80
48416;DHT22;34227;51.840;4.146;2023-07-30T07:32:00;20.90;91.70
48416;DHT22;34227;51.840;4.146;2023-07-30T07:34:26;21.00;91.60
48416;DHT22;34227;51.840;4.146;2023-07-30T07:36:52;21.10;91.60
48416;DHT22;34227;51.840;4.146;2023-07-30T07:39:17;21.10;91.50
48416;DHT22;34227;51.840;4.146;2023-07-30T07:41:43;21.30;91.40
48416;DHT22;34227;51.840;4.146;2023-07-30T07:44:09;21.30;91.30
48416;DHT22;34227;51.840;4.146;2023-07-30T07:46:34;21.40;91.10
48416;DHT22;34227;51.840;4.146;2023-07-30T07:49:00;21.50;91.00
48416;DHT22;34227;51.840;4.146;2023-07-30T07:51:25;21.60;90.90
48416;DHT22;34227;51.840;4.146;2023-07-30T07:53:51;21.60;90.70
48416;DHT22;34227;51.840;4.146;2023-07-30T07:56:16;21.70;90.50
48416;DHT22;34227;51.840;4.146;2023-07-30T07:58:44;21.70;90.40
48416;DHT22;34227;51.840;4.146;2023-07-30T08:01:10;21.70;90.30
48416;DHT22;34227;51.840;4.146;2023-07-30T08:03:35;21.80;90.30
48416;DHT22;34227;51.840;4.146;2023-07-30T08:06:05;21.80;90.20
48416;DHT22;34227;51.840;4.146;2023-07-30T08:08:33;21.70;90.10
48416;DHT22;34227;51.840;4.146;2023-07-30T08:11:02;21.80;90.10
48416;DHT22;34227;51.840;4.146;2023-07-30T08:13:29;21.80;90.20
48416;DHT22;34227;51.840;4.146;2023-07-30T08:15:55;21.90;90.10
48416;DHT22;34227;51.840;4.146;2023-07-30T08:18:20;21.90;90.20
48416;DHT22;34227;51.840;4.146;2023-07-30T08:20:46;22.00;90.30
48416;DHT22;34227;51.840;4.146;2023-07-30T08:23:11;22.20;90.40
48416;DHT22;34227;51.840;4.146;2023-07-30T08:25:37;22.40;90.20
48416;DHT22;34227;51.840;4.146;2023-07-30T08:30:28;22.70;89.10
48416;DHT22;34227;51.840;4.146;2023-07-30T08:32:54;22.80;89.10
48416;DHT22;34227;51.840;4.146;2023-07-30T08:35:19;22.90;88.90
48416;DHT22;34227;51.840;4.146;2023-07-30T08:37:45;23.10;88.80
48416;DHT22;34227;51.840;4.146;2023-07-30T08:40:10;23.20;88.60
48416;DHT22;34227;51.840;4.146;2023-07-30T08:42:36;23.40;88.00
48416;DHT22;34227;51.840;4.146;2023-07-30T08:45:04;23.50;88.70
48416;DHT22;34227;51.840;4.146;2023-07-30T08:47:31;23.70;88.70
48416;DHT22;34227;51.840;4.146;2023-07-30T08:49:56;24.00;88.60
48416;DHT22;34227;51.840;4.146;2023-07-30T08:52:22;24.20;88.00
48416;DHT22;34227;51.840;4.146;2023-07-30T08:54:49;24.40;87.20
48416;DHT22;34227;51.840;4.146;2023-07-30T08:57:16;24.60;86.90
48416;DHT22;34227;51.840;4.146;2023-07-30T08:59:49;24.70;86.90
48416;DHT22;34227;51.840;4.146;2023-07-30T09:02:18;25.10;86.20
48416;DHT22;34227;51.840;4.146;2023-07-30T09:04:47;25.30;86.60
48416;DHT22;34227;51.840;4.146;2023-07-30T09:07:15;25.60;86.40
48416;DHT22;34227;51.840;4.146;2023-07-30T09:09:41;25.80;85.70
48416;DHT22;34227;51.840;4.146;2023-07-30T09:12:14;26.20;86.00
48416;DHT22;34227;51.840;4.146;2023-07-30T09:14:40;26.60;85.70
48416;DHT22;34227;51.840;4.146;2023-07-30T09:17:05;27.00;85.10
48416;DHT22;34227;51.840;4.146;2023-07-30T09:19:34;27.30;84.10
48416;DHT22;34227;51.840;4.146;2023-07-30T09:22:03;27.60;83.40
48416;DHT22;34227;51.840;4.146;2023-07-30T09:24:29;28.00;82.80
48416;DHT22;34227;51.840;4.146;2023-07-30T09:26:54;28.20;82.20
48416;DHT22;34227;51.840;4.146;2023-07-30T09:29:22;28.50;81.60
48416;DHT22;34227;51.840;4.146;2023-07-30T09:31:49;28.90;80.80
48416;DHT22;34227;51.840;4.146;2023-07-30T09:34:22;29.10;80.10
48416;DHT22;34227;51.840;4.146;2023-07-30T09:36:54;29.40;79.20
48416;DHT22;34227;51.840;4.146;2023-07-30T09:39:21;29.50;78.20
48416;DHT22;34227;51.840;4.146;2023-07-30T09:41:46;29.80;77.90
48416;DHT22;34227;51.840;4.146;2023-07-30T09:44:15;29.90;76.90
48416;DHT22;34227;51.840;4.146;2023-07-30T09:46:42;30.10;75.60
48416;DHT22;34227;51.840;4.146;2023-07-30T09:49:09;30.30;75.30
48416;DHT22;34227;51.840;4.146;2023-07-30T09:51:35;30.40;74.70
48416;DHT22;34227;51.840;4.146;2023-07-30T09:54:01;30.60;74.00
48416;DHT22;34227;51.840;4.146;2023-07-30T09:56:27;30.70;73.90
48416;DHT22;34227;51.840;4.146;2023-07-30T09:58:52;30.90;73.90
48416;DHT22;34227;51.840;4.146;2023-07-30T10:01:18;31.00;73.80
48416;DHT22;34227;51.840;4.146;2023-07-30T10:03:46;31.20;72.40
48416;DHT22;34227;51.840;4.146;2023-07-30T10:06:12;31.30;71.40
48416;DHT22;34227;51.840;4.146;2023-07-30T10:08:38;31.50;71.60
48416;DHT22;34227;51.840;4.146;2023-07-30T10:11:05;31.80;70.80
48416;DHT22;34227;51.840;4.146;2023-07-30T10:13:32;31.80;71.30
48416;DHT22;34227;51.840;4.146;2023-07-30T10:15:58;32.00;70.70
48416;DHT22;34227;51.840;4.146;2023-07-30T10:18:40;32.20;69.40
48416;DHT22;34227;51.840;4.146;2023-07-30T10:21:09;32.30;69.00
48416;DHT22;34227;51.840;4.146;2023-07-30T10:23:35;32.50;68.90
48416;DHT22;34227;51.840;4.146;2023-07-30T10:26:10;32.50;67.30
48416;DHT22;34227;51.840;4.146;2023-07-30T10:28:36;32.60;66.80
48416;DHT22;34227;51.840;4.146;2023-07-30T10:31:07;32.60;66.30
48416;DHT22;34227;51.840;4.146;2023-07-30T10:33:51;32.60;65.90
48416;DHT22;34227;51.840;4.146;2023-07-30T10:37:03;32.70;67.00
48416;DHT22;34227;51.840;4.146;2023-07-30T10:39:10;32.70;64.40
48416;DHT22;34227;51.840;4.146;2023-07-30T10:41:36;32.70;64.20
48416;DHT22;34227;51.840;4.146;2023-07-30T10:44:05;32.70;63.70
48416;DHT22;34227;51.840;4.146;2023-07-30T10:46:31;32.60;63.40
48416;DHT22;34227;51.840;4.146;2023-07-30T10:48:57;32.50;63.20
48416;DHT22;34227;51.840;4.146;2023-07-30T10:51:22;32.50;63.00
48416;DHT22;34227;51.840;4.146;2023-07-30T10:53:49;32.10;54.30
48416;DHT22;34227;51.840;4.146;2023-07-30T10:56:16;31.20;59.20
48416;DHT22;34227;51.840;4.146;2023-07-30T10:58:42;31.20;62.30
48416;DHT22;34227;51.840;4.146;2023-07-30T11:01:08;31.20;63.50
48416;DHT22;34227;51.840;4.146;2023-07-30T11:03:34;31.30;64.00
48416;DHT22;34227;51.840;4.146;2023-07-30T11:06:01;31.30;64.80
48416;DHT22;34227;51.840;4.146;2023-07-30T11:08:39;31.20;64.40
48416;DHT22;34227;51.840;4.146;2023-07-30T11:11:06;31.20;64.40
48416;DHT22;34227;51.840;4.146;2023-07-30T11:13:39;31.10;64.50
48416;DHT22;34227;51.840;4.146;2023-07-30T11:16:05;31.10;64.70
48416;DHT22;34227;51.840;4.146;2023-07-30T11:18:32;31.00;64.50
48416;DHT22;34227;51.840;4.146;2023-07-30T11:21:10;31.00;64.70
48416;DHT22;34227;51.840;4.146;2023-07-30T11:23:36;30.90;64.10
48416;DHT22;34227;51.840;4.146;2023-07-30T11:26:03;30.90;64.10
48416;DHT22;34227;51.840;4.146;2023-07-30T11:28:29;30.80;63.50
48416;DHT22;34227;51.840;4.146;2023-07-30T11:30:56;30.80;63.50
48416;DHT22;34227;51.840;4.146;2023-07-30T11:33:22;30.70;63.40
48416;DHT22;34227;51.840;4.146;2023-07-30T11:35:48;30.60;63.50
48416;DHT22;34227;51.840;4.146;2023-07-30T11:38:14;30.60;63.90
48416;DHT22;34227;51.840;4.146;2023-07-30T11:40:39;30.50;63.50
48416;DHT22;34227;51.840;4.146;2023-07-30T11:43:05;30.50;63.20
48416;DHT22;34227;51.840;4.146;2023-07-30T11:45:31;30.40;63.10
48416;DHT22;34227;51.840;4.146;2023-07-30T11:48:06;30.30;62.60
48416;DHT22;34227;51.840;4.146;2023-07-30T11:50:43;30.30;63.80
48416;DHT22;34227;51.840;4.146;2023-07-30T11:53:08;30.20;63.30
48416;DHT22;34227;51.840;4.146;2023-07-30T11:55:37;30.10;63.50
48416;DHT22;34227;51.840;4.146;2023-07-30T11:58:04;30.00;63.50
48416;DHT22;34227;51.840;4.146;2023-07-30T12:00:31;30.00;63.70
48416;DHT22;34227;51.840;4.146;2023-07-30T12:02:59;29.80;63.20
48416;DHT22;34227;51.840;4.146;2023-07-30T12:05:35;29.70;63.20
48416;DHT22;34227;51.840;4.146;2023-07-30T12:08:04;29.60;63.50
48416;DHT22;34227;51.840;4.146;2023-07-30T12:10:45;29.50;63.40
48416;DHT22;34227;51.840;4.146;2023-07-30T12:13:12;29.40;63.10
48416;DHT22;34227;51.840;4.146;2023-07-30T12:15:37;29.30;63.40
48416;DHT22;34227;51.840;4.146;2023-07-30T12:18:07;29.30;63.90
48416;DHT22;34227;51.840;4.146;2023-07-30T12:20:32;29.10;63.10
48416;DHT22;34227;51.840;4.146;2023-07-30T12:22:58;29.10;63.90
48416;DHT22;34227;51.840;4.146;2023-07-30T12:25:23;29.00;63.90
48416;DHT22;34227;51.840;4.146;2023-07-30T12:27:49;28.90;65.30
48416;DHT22;34227;51.840;4.146;2023-07-30T12:30:14;28.90;64.30
48416;DHT22;34227;51.840;4.146;2023-07-30T12:32:40;28.80;64.20
48416;DHT22;34227;51.840;4.146;2023-07-30T12:35:05;28.70;64.30
48416;DHT22;34227;51.840;4.146;2023-07-30T12:37:31;28.70;65.10
48416;DHT22;34227;51.840;4.146;2023-07-30T12:39:58;28.60;64.90
48416;DHT22;34227;51.840;4.146;2023-07-30T12:42:26;28.40;62.90
48416;DHT22;34227;51.840;4.146;2023-07-30T12:44:52;28.30;63.20
48416;DHT22;34227;51.840;4.146;2023-07-30T12:47:17;28.00;63.20
48416;DHT22;34227;51.840;4.146;2023-07-30T12:49:43;28.00;63.60
48416;DHT22;34227;51.840;4.146;2023-07-30T12:52:08;28.00;64.00
48416;DHT22;34227;51.840;4.146;2023-07-30T12:54:34;28.00;64.50
48416;DHT22;34227;51.840;4.146;2023-07-30T12:57:00;27.70;60.10
48416;DHT22;34227;51.840;4.146;2023-07-30T12:59:25;26.90;64.60
48416;DHT22;34227;51.840;4.146;2023-07-30T13:01:51;27.00;65.40
48416;DHT22;34227;51.840;4.146;2023-07-30T13:04:16;27.20;65.40
48416;DHT22;34227;51.840;4.146;2023-07-30T13:06:42;27.30;65.50
48416;DHT22;34227;51.840;4.146;2023-07-30T13:09:07;27.30;65.80
48416;DHT22;34227;51.840;4.146;2023-07-30T13:11:33;27.10;64.80
48416;DHT22;34227;51.840;4.146;2023-07-30T13:13:59;27.10;65.50
48416;DHT22;34227;51.840;4.146;2023-07-30T13:16:24;27.10;65.70
48416;DHT22;34227;51.840;4.146;2023-07-30T13:18:49;27.20;65.90
48416;DHT22;34227;51.840;4.146;2023-07-30T13:21:15;27.10;65.80
48416;DHT22;34227;51.840;4.146;2023-07-30T13:23:41;27.10;65.70
48416;DHT22;34227;51.840;4.146;2023-07-30T13:26:06;27.10;65.90
48416;DHT22;34227;51.840;4.146;2023-07-30T13:28:32;27.10;66.00
48416;DHT22;34227;51.840;4.146;2023-07-30T13:30:57;27.10;66.30
48416;DHT22;34227;51.840;4.146;2023-07-30T13:33:23;27.00;66.30
48416;DHT22;34227;51.840;4.146;2023-07-30T13:35:57;27.00;66.50
48416;DHT22;34227;51.840;4.146;2023-07-30T13:38:23;27.00;66.50
48416;DHT22;34227;51.840;4.146;2023-07-30T13:40:52;27.00;66.60
48416;DHT22;34227;51.840;4.146;2023-07-30T13:43:17;27.00;66.90
48416;DHT22;34227;51.840;4.146;2023-07-30T13:45:43;27.00;66.80
48416;DHT22;34227;51.840;4.146;2023-07-30T13:48:08;26.80;66.80
48416;DHT22;34227;51.840;4.146;2023-07-30T13:50:34;26.70;70.20
48416;DHT22;34227;51.840;4.146;2023-07-30T13:53:00;26.80;70.30
48416;DHT22;34227;51.840;4.146;2023-07-30T13:55:26;26.80;70.40
48416;DHT22;34227;51.840;4.146;2023-07-30T13:57:51;26.80;69.80
48416;DHT22;34227;51.840;4.146;2023-07-30T14:00:17;26.80;69.70
48416;DHT22;34227;51.840;4.146;2023-07-30T14:02:42;26.90;69.70
48416;DHT22;34227;51.840;4.146;2023-07-30T14:05:09;26.80;69.70
48416;DHT22;34227;51.840;4.146;2023-07-30T14:07:34;26.90;69.70
48416;DHT22;34227;51.840;4.146;2023-07-30T14:10:00;26.80;69.70
48416;DHT22;34227;51.840;4.146;2023-07-30T14:12:26;26.80;69.90
48416;DHT22;34227;51.840;4.146;2023-07-30T14:14:52;26.80;69.80
48416;DHT22;34227;51.840;4.146;2023-07-30T14:17:17;26.80;69.80
48416;DHT22;34227;51.840;4.146;2023-07-30T14:19:43;26.80;69.80
48416;DHT22;34227;51.840;4.146;2023-07-30T14:22:08;26.80;70.20
48416;DHT22;34227;51.840;4.146;2023-07-30T14:24:34;26.80;70.00
48416;DHT22;34227;51.840;4.146;2023-07-30T14:27:00;26.80;70.20
48416;DHT22;34227;51.840;4.146;2023-07-30T14:29:26;26.80;70.20
48416;DHT22;34227;51.840;4.146;2023-07-30T14:31:51;26.70;70.20
48416;DHT22;34227;51.840;4.146;2023-07-30T14:34:17;26.70;70.20
48416;DHT22;34227;51.840;4.146;2023-07-30T14:36:43;26.70;70.30
48416;DHT22;34227;51.840;4.146;2023-07-30T14:39:08;26.70;70.40
48416;DHT22;34227;51.840;4.146;2023-07-30T14:41:34;26.70;70.60
48416;DHT22;34227;51.840;4.146;2023-07-30T14:44:00;26.60;70.40
48416;DHT22;34227;51.840;4.146;2023-07-30T14:46:25;26.60;70.70
48416;DHT22;34227;51.840;4.146;2023-07-30T14:48:53;26.60;70.60
48416;DHT22;34227;51.840;4.146;2023-07-30T14:51:19;26.60;70.80
48416;DHT22;34227;51.840;4.146;2023-07-30T14:53:45;26.60;70.80
48416;DHT22;34227;51.840;4.146;2023-07-30T14:56:10;26.50;70.80
48416;DHT22;34227;51.840;4.146;2023-07-30T14:58:36;26.50;70.90
48416;DHT22;34227;51.840;4.146;2023-07-30T15:01:01;26.50;71.00
48416;DHT22;34227;51.840;4.146;2023-07-30T15:03:27;26.50;70.80
48416;DHT22;34227;51.840;4.146;2023-07-30T15:05:53;26.40;70.80
48416;DHT22;34227;51.840;4.146;2023-07-30T15:08:18;26.40;71.00
48416;DHT22;34227;51.840;4.146;2023-07-30T15:10:44;26.40;71.10
48416;DHT22;34227;51.840;4.146;2023-07-30T15:13:09;26.30;71.00
48416;DHT22;34227;51.840;4.146;2023-07-30T15:15:35;26.30;71.10
48416;DHT22;34227;51.840;4.146;2023-07-30T15:18:00;26.30;71.20
48416;DHT22;34227;51.840;4.146;2023-07-30T15:20:26;26.20;71.10
48416;DHT22;34227;51.840;4.146;2023-07-30T15:22:56;26.20;71.40
48416;DHT22;34227;51.840;4.146;2023-07-30T15:25:21;26.20;71.70
48416;DHT22;34227;51.840;4.146;2023-07-30T15:27:52;26.10;71.50